Data for 06/22/2016

Time Sea-Level Adjusted Pressure Absolute Pressure Temperature Relative Humidity Dew Point   
(mb) (inHg) (mb) (inHg) (C) (F) (%) (C) (F)
00:05 1022 30.18 851 25.13 12 53.5 43 -0.3 31.4
00:10 1022 30.18 851 25.13 11.8 53.2 43 -0.5 31.1
00:15 1022 30.18 851 25.13 11.8 53.2 43 -0.5 31.1
00:20 1022 30.18 851 25.13 11.8 53.2 43 -0.3 31.5
00:25 1022 30.18 851 25.13 11.5 52.7 45 -0.1 31.8
00:30 1022 30.18 851 25.13 11.3 52.4 45 -0.3 31.5
00:35 1022 30.18 851 25.13 11.1 52 46 -0 31.9
00:40 1022 30.18 851 25.13 11 51.8 45 -0.4 31.2
00:45 1022 30.18 851 25.13 11.2 52.1 44 -0.5 31
00:50 1022 30.18 851 25.13 11.1 52 44 -0.6 30.8
00:55 1022 30.18 851 25.13 11.1 51.9 43 -1 30.2
01:00 1022 30.18 851 25.13 11.2 52.2 42 -1.1 30.1
01:05 1022 30.18 851 25.13 11.3 52.4 42 -1 30.2
01:10 1022 30.18 851 25.13 11.3 52.3 44 -0.6 31
01:15 1022 30.18 851 25.13 11.1 52 43 -0.8 30.5
01:20 1022 30.18 851 25.13 11 51.7 49 0.6 33
01:25 1022 30.18 852 25.16 10.5 50.8 51 0.7 33.2
01:30 1022 30.18 851 25.13 9.6 49.2 53 0.4 32.8
01:35 1022 30.18 851 25.13 9.5 49 50 -0.5 31.1
01:40 1022 30.18 851 25.13 9.9 49.7 51 0.2 32.3
01:45 1022 30.18 852 25.16 9.7 49.4 51 0.2 32.3
01:50 1022 30.18 852 25.16 9.3 48.8 52 0 32.1
01:55 1022 30.18 852 25.16 9.5 49 49 -0.6 31
02:00 1022 30.18 852 25.16 9.8 49.7 50 -0.2 31.7
02:05 1022 30.18 852 25.16 9.8 49.6 49 -0.4 31.2
02:10 1022 30.18 851 25.13 9.3 48.8 56 1.1 34
02:15 1022 30.18 851 25.13 8.1 46.7 60 0.8 33.5
02:20 1022 30.18 851 25.13 7.7 45.9 59 0.3 32.6
02:25 1022 30.18 851 25.13 7.6 45.6 61 0.6 33
02:30 1022 30.18 851 25.13 7.3 45.2 62 0.7 33.2
02:35 1022 30.18 851 25.13 7.2 45 62 0.4 32.7
02:40 1022 30.18 851 25.13 7.4 45.3 59 0 32
02:45 1022 30.18 852 25.16 7.6 45.8 58 -0.2 31.7
02:50 1022 30.18 852 25.16 7.8 46 56 -0.5 31.2
02:55 1022 30.18 852 25.16 8.1 46.7 55 -0.3 31.5
03:00 1022 30.18 852 25.16 8.4 47.1 52 -0.9 30.4
03:05 1022 30.18 852 25.16 8.4 47.2 53 -0.5 31.1
03:10 1022 30.18 852 25.16 8.4 47 53 -0.8 30.6
03:15 1022 30.18 852 25.16 8.2 46.8 54 -0.6 31
03:20 1022 30.18 852 25.16 8 46.4 54 -0.8 30.5
03:25 1022 30.18 852 25.16 8 46.3 55 -0.6 31
03:30 1022 30.18 852 25.16 7.8 46.1 55 -0.6 31
03:35 1022 30.18 852 25.16 7.7 45.9 55 -0.7 30.7
03:40 1022 30.18 852 25.16 7.7 45.9 54 -0.9 30.3
03:45 1022 30.18 852 25.16 7.8 46.1 54 -0.9 30.4
03:50 1022 30.18 852 25.16 8 46.3 52 -1.2 29.9
03:55 1022 30.18 852 25.16 8.2 46.7 51 -1.3 29.6
04:00 1022 30.18 852 25.16 8.4 47 50 -1.4 29.5
04:05 1022 30.18 852 25.16 8.6 47.4 49 -1.5 29.3
04:10 1022 30.18 852 25.16 8.8 47.8 50 -1.2 29.9
04:15 1022 30.18 852 25.16 8.8 47.8 50 -1.1 29.9
04:20 1022 30.18 852 25.16 8.6 47.5 51 -0.9 30.4
04:25 1022 30.18 852 25.16 8.2 46.7 53 -0.9 30.4
04:30 1022 30.18 852 25.16 8 46.4 54 -0.7 30.7
04:35 1023 30.21 852 25.16 7.7 45.8 54 -1 30.3
04:40 1022 30.18 852 25.16 7.5 45.6 55 -0.9 30.3
04:45 1022 30.18 852 25.16 7.5 45.6 55 -0.8 30.6
04:50 1022 30.18 852 25.16 7.4 45.4 55 -0.9 30.3
04:55 1022 30.18 852 25.16 7.4 45.3 56 -0.8 30.6
05:00 1023 30.21 852 25.16 7.3 45.2 56 -0.8 30.5
05:05 1023 30.21 852 25.16 7.3 45.2 56 -0.9 30.3
05:10 1023 30.21 852 25.16 7.3 45.2 56 -0.8 30.5
05:15 1023 30.21 852 25.16 7.4 45.3 55 -0.9 30.3
05:20 1023 30.21 852 25.16 7.7 45.8 54 -1 30.2
05:25 1023 30.21 852 25.16 8 46.4 53 -1.1 30.1
05:30 1023 30.21 852 25.16 8.3 47 51 -1.2 29.8
05:35 1023 30.21 852 25.16 8.6 47.5 51 -0.9 30.3
05:40 1023 30.21 852 25.16 8.7 47.7 52 -0.6 30.8
05:45 1023 30.21 852 25.16 8.6 47.4 51 -0.8 30.5
05:50 1023 30.21 852 25.16 8.7 47.7 51 -0.9 30.4
05:55 1023 30.21 852 25.16 9 48.2 49 -1.1 30.1
06:00 1023 30.21 852 25.16 9.1 48.3 50 -0.8 30.6
06:05 1023 30.21 852 25.16 9.1 48.4 50 -0.9 30.5
06:10 1023 30.21 852 25.16 9.4 49 49 -0.7 30.7
06:15 1023 30.21 852 25.16 9.7 49.4 49 -0.5 31.1
06:20 1023 30.21 852 25.16 10 50 48 -0.5 31.1
06:25 1023 30.21 852 25.16 10.2 50.3 48 -0.4 31.3
06:30 1023 30.21 852 25.16 10.5 50.9 48 0.1 32.1
06:35 1023 30.21 852 25.16 10.7 51.3 48 0.2 32.3
06:40 1023 30.21 852 25.16 10.9 51.6 46 -0.2 31.7
06:45 1023 30.21 852 25.16 11.3 52.3 45 -0.1 31.8
06:50 1023 30.21 852 25.16 11.8 53.2 43 -0.2 31.7
06:55 1023 30.21 852 25.16 12.3 54.2 42 -0.1 31.8
07:00 1023 30.21 852 25.16 13 55.4 41 0.2 32.3
07:05 1023 30.21 852 25.16 13.5 56.3 39 -0.1 31.8
07:10 1023 30.21 852 25.16 14 57.2 37 -0.3 31.4
07:15 1023 30.21 852 25.16 14.8 58.6 34 -0.7 30.7
07:20 1023 30.21 852 25.16 14.5 58 34 -1.1 29.9
07:25 1023 30.21 852 25.16 14.9 58.8 32 -1.4 29.4
07:30 1023 30.21 852 25.16 15 59 33 -1 30.2
07:35 1023 30.21 852 25.16 15.5 59.9 32 -1.1 30.1
07:40 1023 30.21 852 25.16 15.7 60.3 38 1.4 34.6
07:45 1023 30.21 852 25.16 15.9 60.7 31 -1.2 29.8
07:50 1023 30.21 852 25.16 16.6 61.8 30 -1.1 30
07:55 1023 30.21 852 25.16 16.6 62 30 -1 30.2
08:00 1023 30.21 852 25.16 16.8 62.2 29 -1.1 30.1
08:05 1023 30.21 852 25.16 17.2 62.9 30 -0.6 30.9
08:10 1023 30.21 852 25.16 16.9 62.4 31 -0.2 31.7
08:15 1023 30.21 852 25.16 16.4 61.4 31 -0.8 30.6
08:20 1023 30.21 852 25.16 16 60.9 31 -0.9 30.4
08:25 1022 30.18 852 25.16 16.4 61.6 30 -1 30.1
08:30 1022 30.18 852 25.16 17.2 62.9 30 -0.6 31
08:35 1022 30.18 852 25.16 17.5 63.4 31 0.1 32.3
08:40 1022 30.18 852 25.16 17 62.6 31 -0.2 31.6
08:45 1022 30.18 852 25.16 17.2 62.9 30 -0.2 31.6
08:50 1022 30.18 852 25.16 17.8 64 31 0.4 32.7
08:55 1022 30.18 852 25.16 17.8 64 31 0.5 32.9
09:00 1022 30.18 851 25.13 16.6 61.9 32 0.2 32.3
09:05 1022 30.18 851 25.13 17 62.6 33 0.8 33.4
09:10 1022 30.18 851 25.13 17.5 63.4 30 -0.2 31.7
09:15 1022 30.18 851 25.13 18.4 65.1 29 0.3 32.5
09:20 1022 30.18 851 25.13 18.6 65.4 30 0.6 33.1
09:25 1022 30.18 851 25.13 18.9 66 31 1.4 34.6
09:30 1022 30.18 851 25.13 18.8 65.8 29 0.6 33.1
09:35 1022 30.18 851 25.13 19 66.2 32 2 35.6
09:40 1022 30.18 851 25.13 19.2 66.6 31 1.6 35
09:45 1022 30.18 851 25.13 18.9 66.1 32 1.8 35.3
09:50 1022 30.18 851 25.13 19.1 66.3 30 1.4 34.5
09:55 1022 30.18 851 25.13 19.5 67.2 30 1.8 35.2
10:00 1022 30.18 851 25.13 19.9 67.8 29 1.5 34.7
10:05 1022 30.18 851 25.13 19.8 67.7 29 1.7 35
10:10 1022 30.18 851 25.13 19.7 67.5 27 0.3 32.6
10:15 1022 30.18 851 25.13 20.1 68.2 27 0.8 33.5
10:20 1022 30.18 851 25.13 20.3 68.5 29 1.7 35
10:25 1022 30.18 851 25.13 20.3 68.6 26 0.5 32.8
10:30 1022 30.18 851 25.13 20.2 68.3 27 1 33.8
10:35 1022 30.18 851 25.13 20.8 69.4 26 0.6 33.1
10:40 1022 30.18 851 25.13 21.2 70.1 23 -0.3 31.4
10:45 1022 30.18 851 25.13 20.9 69.6 25 0.4 32.7
10:50 1022 30.18 851 25.13 20.5 68.9 27 1 33.7
10:55 1022 30.18 851 25.13 21.2 70.1 21 -1.9 28.6
11:00 1021 30.15 851 25.13 21.9 71.4 21 -1.4 29.5
11:05 1021 30.15 851 25.13 21.9 71.4 20 -2 28.4
11:10 1021 30.15 851 25.13 21.3 70.3 18 -3.6 25.6
11:15 1021 30.15 851 25.13 21.4 70.6 17 -4.2 24.5
11:20 1021 30.15 851 25.13 21.2 70.1 18 -3.7 25.4
11:25 1021 30.15 851 25.13 20.7 69.3 18 -4.6 23.7
11:30 1021 30.15 850 25.1 22.3 72.1 18 -3 26.5
11:35 1021 30.15 850 25.1 23.1 73.7 18 -2.3 27.9
11:40 1021 30.15 850 25.1 22.9 73.2 16 -4.4 24.1
11:45 1021 30.15 850 25.1 21.5 70.7 18 -3.4 25.9
11:50 1021 30.15 850 25.1 21.7 71.1 17 -4.3 24.2
11:55 1021 30.15 850 25.1 22.5 72.5 18 -3.1 26.5
12:00 1021 30.15 850 25.1 21.9 71.5 17 -3.8 25.2
12:05 1021 30.15 850 25.1 23.1 73.6 15 -4.4 24
12:10 1021 30.15 850 25.1 22.5 72.6 15 -5 23.1
12:15 1021 30.15 850 25.1 22.9 73.1 17 -3.5 25.7
12:20 1021 30.15 850 25.1 23.1 73.5 17 -3.4 26
12:25 1021 30.15 850 25.1 22.6 72.6 18 -2.6 27.3
12:30 1021 30.15 850 25.1 23.1 73.5 18 -2.5 27.6
12:35 1021 30.15 850 25.1 23 73.4 17 -3.2 26.2
12:40 1021 30.15 850 25.1 23.7 74.6 15 -4 24.8
12:45 1021 30.15 850 25.1 24.5 76 17 -2.3 27.8
12:50 1021 30.15 850 25.1 24 75.3 17 -2.2 28.1
12:55 1021 30.15 850 25.1 24.2 75.6 17 -2.3 27.9
13:00 1021 30.15 850 25.1 24.5 76 17 -1.9 28.6
13:05 1020 30.12 850 25.1 23.4 74.1 19 -1.5 29.3
13:10 1020 30.12 850 25.1 24.2 75.5 17 -2.1 28.2
13:15 1020 30.12 850 25.1 23.9 75 17 -2.7 27.1
13:20 1020 30.12 850 25.1 23.3 73.9 16 -3.4 25.8
13:25 1020 30.12 850 25.1 23.8 74.9 17 -2.5 27.6
13:30 1020 30.12 850 25.1 24.5 76 17 -1.9 28.6
13:35 1020 30.12 849 25.07 24.7 76.4 17 -1.8 28.7
13:40 1020 30.12 849 25.07 24.8 76.6 16 -2.9 26.7
13:45 1020 30.12 849 25.07 25 77.1 17 -1.7 28.9
13:50 1020 30.12 849 25.07 24.9 76.8 17 -1.5 29.3
13:55 1020 30.12 849 25.07 24.8 76.6 17 -1.8 28.7
14:00 1020 30.12 849 25.07 24.8 76.7 16 -2.4 27.6
14:05 1020 30.12 849 25.07 24.9 76.9 18 -1.2 29.9
14:10 1020 30.12 849 25.07 25.2 77.4 16 -2.2 28
14:15 1020 30.12 849 25.07 25.3 77.5 15 -2.9 26.7
14:20 1020 30.12 849 25.07 25.7 78.2 16 -2.1 28.3
14:25 1020 30.12 849 25.07 26.1 78.9 16 -1.6 29.1
14:30 1020 30.12 849 25.07 26.1 78.9 15 -2.4 27.7
14:35 1020 30.12 849 25.07 26.2 79.2 15 -1.8 28.7
14:40 1020 30.12 849 25.07 25.7 78.3 18 -0.4 31.3
14:45 1020 30.12 849 25.07 25.5 78 17 -0.8 30.6
14:50 1020 30.12 849 25.07 25.7 78.3 17 -1.1 30.1
14:55 1019 30.09 849 25.07 25.9 78.7 15 -2.6 27.4
15:00 1019 30.09 849 25.07 26.2 79.2 14 -3.2 26.2
15:05 1019 30.09 849 25.07 26.4 79.5 17 -0.1 31.8
15:10 1019 30.09 849 25.07 25.9 78.6 16 -1.3 29.7
15:15 1019 30.09 848 25.04 26 78.8 15 -2.2 28
15:20 1019 30.09 848 25.04 26.3 79.3 16 -1.7 29
15:25 1019 30.09 848 25.04 26.4 79.4 15 -1.8 28.7
15:30 1019 30.09 848 25.04 26.1 79 15 -1.9 28.6
15:35 1019 30.09 848 25.04 26.1 78.9 15 -2.5 27.5
15:40 1019 30.09 848 25.04 26.3 79.3 15 -2 28.4
15:45 1019 30.09 848 25.04 26.5 79.7 15 -2.3 27.8
15:50 1019 30.09 848 25.04 26.8 80.2 14 -2.4 27.7
15:55 1019 30.09 848 25.04 26.9 80.3 15 -2.1 28.3
16:00 1019 30.09 848 25.04 26.5 79.7 14 -2.5 27.5
16:05 1019 30.09 848 25.04 26.3 79.4 14 -2.6 27.3
16:10 1019 30.09 848 25.04 26.4 79.6 15 -2.4 27.7
16:15 1019 30.09 848 25.04 26.4 79.6 14 -2.6 27.3
16:20 1019 30.09 848 25.04 26.2 79.2 14 -2.7 27.2
16:25 1019 30.09 848 25.04 25.9 78.7 15 -2.9 26.8
16:30 1019 30.09 848 25.04 26.3 79.3 14 -3.1 26.4
16:35 1018 30.06 848 25.04 26.4 79.6 14 -3.1 26.4
16:40 1019 30.09 848 25.04 25.2 77.4 15 -3.2 26.3
16:45 1018 30.06 848 25.04 25.8 78.4 14 -3.2 26.3
16:50 1018 30.06 848 25.04 26.4 79.6 14 -3.3 26
16:55 1018 30.06 848 25.04 26.5 79.8 13 -3.7 25.3
17:00 1018 30.06 848 25.04 26.3 79.4 13 -3.8 25.1
17:05 1018 30.06 848 25.04 26.1 78.9 13 -3.8 25.1
17:10 1018 30.06 848 25.04 26.2 79.2 13 -4.3 24.2
17:15 1018 30.06 848 25.04 26.3 79.3 12 -4.7 23.5
17:20 1018 30.06 848 25.04 26.3 79.4 13 -4.5 23.9
17:25 1018 30.06 847 25.01 25.4 77.8 13 -4.8 23.4
17:30 1018 30.06 847 25.01 25.2 77.3 14 -4.1 24.7
17:35 1018 30.06 847 25.01 25.7 78.3 13 -5 23
17:40 1018 30.06 847 25.01 25.5 77.8 13 -5.2 22.7
17:45 1018 30.06 847 25.01 25.6 78 12 -5.4 22.3
17:50 1018 30.06 847 25.01 25.7 78.2 12 -5.6 21.9
17:55 1018 30.06 847 25.01 25.4 77.7 12 -6 21.3
18:00 1018 30.06 847 25.01 25.5 77.9 12 -5.2 22.6
18:05 1018 30.06 847 25.01 25.2 77.4 14 -4.4 24.1
18:10 1018 30.06 847 25.01 25.2 77.3 12 -5.6 22
18:15 1018 30.06 847 25.01 25.1 77.1 11 -6.8 19.8
18:20 1018 30.06 847 25.01 25 77.1 11 -6.8 19.8
18:25 1018 30.06 847 25.01 25.2 77.4 12 -6.3 20.6
18:30 1018 30.06 847 25.01 25.3 77.5 11 -6.7 19.9
18:35 1018 30.06 847 25.01 24.9 76.9 12 -6.5 20.4
18:40 1018 30.06 847 25.01 24.9 76.8 12 -6.3 20.7
18:45 1018 30.06 847 25.01 24.8 76.6 12 -6.5 20.3
18:50 1018 30.06 847 25.01 24.7 76.5 12 -6.9 19.6
18:55 1018 30.06 847 25.01 24.7 76.4 12 -6.5 20.4
19:00 1018 30.06 847 25.01 24.9 76.8 11 -7.1 19.1
19:05 1018 30.06 847 25.01 24.9 76.9 12 -6.6 20.1
19:10 1018 30.06 847 25.01 24.9 76.8 12 -6.4 20.5
19:15 1018 30.06 847 25.01 24.8 76.7 13 -5.6 22
19:20 1018 30.06 847 25.01 24.7 76.5 13 -5.6 21.9
19:25 1018 30.06 847 25.01 24.6 76.4 13 -5.6 22
19:30 1018 30.06 847 25.01 24.6 76.4 14 -4.5 23.8
19:35 1018 30.06 847 25.01 24.5 76.2 13 -5.3 22.4
19:40 1018 30.06 847 25.01 24.4 75.9 14 -4.6 23.7
19:45 1018 30.06 847 25.01 24.1 75.4 16 -3.5 25.8
19:50 1018 30.06 847 25.01 23.7 74.7 20 -0.2 31.7
19:55 1018 30.06 847 25.01 23.6 74.4 23 1.5 34.6
20:00 1018 30.06 847 25.01 23.3 73.9 23 1 33.9
20:05 1018 30.06 847 25.01 22.9 73.3 23 1 33.9
20:10 1018 30.06 847 25.01 22.6 72.7 24 0.9 33.7
20:15 1018 30.06 847 25.01 22.2 71.9 26 1.8 35.2
20:20 1018 30.06 847 25.01 21.7 71 24 0.7 33.3
20:25 1018 30.06 847 25.01 21.4 70.4 24 0.2 32.4
20:30 1018 30.06 847 25.01 21.2 70.1 25 0.4 32.6
20:35 1018 30.06 847 25.01 20.9 69.6 24 -0.5 31.1
20:40 1018 30.06 847 25.01 20.9 69.6 24 -0.2 31.7
20:45 1018 30.06 847 25.01 20.7 69.3 24 -0.4 31.3
20:50 1018 30.06 848 25.04 20.5 69 24 -0.6 31
20:55 1018 30.06 848 25.04 20.6 69 23 -1.1 30
21:00 1018 30.06 848 25.04 20.5 68.9 22 -1.6 29.1
21:05 1018 30.06 848 25.04 20.6 69.2 21 -2.4 27.6
21:10 1018 30.06 848 25.04 20.9 69.6 20 -2.9 26.8
21:15 1018 30.06 848 25.04 21.1 70 20 -2.5 27.5
21:20 1018 30.06 848 25.04 20.8 69.4 21 -2 28.4
21:25 1018 30.06 848 25.04 20.5 68.8 22 -2 28.5
21:30 1018 30.06 848 25.04 20.3 68.5 21 -2.7 27.1
21:35 1018 30.06 848 25.04 20.5 68.9 19 -3.6 25.5
21:40 1018 30.06 848 25.04 20.7 69.2 19 -3.6 25.6
21:45 1018 30.06 848 25.04 20.7 69.2 19 -3.6 25.5
21:50 1018 30.06 848 25.04 20.6 69.1 18 -4 24.8
21:55 1018 30.06 848 25.04 20.7 69.3 18 -4.4 24.1
22:00 1018 30.06 847 25.01 20.8 69.4 18 -4.3 24.3
22:05 1018 30.06 847 25.01 20.5 69 19 -3.7 25.4
22:10 1018 30.06 847 25.01 20.4 68.8 19 -3.8 25.1
22:15 1018 30.06 847 25.01 20.3 68.6 19 -3.8 25.2
22:20 1018 30.06 847 25.01 20.4 68.6 20 -3.1 26.4
22:25 1018 30.06 847 25.01 20.5 68.8 21 -2.6 27.2
22:30 1018 30.06 847 25.01 20.5 68.9 21 -2.2 28.1
22:35 1018 30.06 847 25.01 20.3 68.5 22 -2.2 28.1
22:40 1018 30.06 847 25.01 20.1 68.3 22 -2.1 28.3
22:45 1018 30.06 847 25.01 20.1 68.2 23 -1.7 29
22:50 1018 30.06 847 25.01 20.1 68.2 23 -1.3 29.6
22:55 1018 30.06 847 25.01 20.1 68.1 24 -1.1 30.1
23:00 1018 30.06 847 25.01 20 68 24 -0.8 30.6
23:05 1018 30.06 847 25.01 19.9 67.9 24 -0.8 30.5
23:10 1018 30.06 847 25.01 20 67.9 25 -0.7 30.7
23:15 1018 30.06 847 25.01 19.9 67.9 25 -0.8 30.6
23:20 1018 30.06 847 25.01 19.9 67.9 25 -0.8 30.6
23:25 1018 30.06 847 25.01 19.8 67.7 25 -0.6 30.8
23:30 1018 30.06 847 25.01 19.6 67.4 25 -0.7 30.7
23:35 1018 30.06 847 25.01 19.6 67.2 25 -0.7 30.7
23:40 1018 30.06 847 25.01 19.6 67.2 25 -0.8 30.5
23:45 1018 30.06 847 25.01 19.5 67.2 25 -0.7 30.8
23:50 1018 30.06 847 25.01 19.4 67 26 -0.6 30.9
23:55 1018 30.06 847 25.01 19.3 66.8 26 -0.6 30.9
24:00 1018 30.06 847 25.01 19.2 66.6 27 -0.3 31.4